sensor_id;sensor_type;location;lat;lon;timestamp;pressure;altitude;pressure_sealevel;temperature;humidity
8641;BME280;4358;42.100;25.222;2023-12-20T00:00:15;100535.13;;;1.13;100.00
8641;BME280;4358;42.100;25.222;2023-12-20T00:02:42;100526.25;;;1.21;100.00
8641;BME280;4358;42.100;25.222;2023-12-20T00:05:12;100528.13;;;1.15;100.00
8641;BME280;4358;42.100;25.222;2023-12-20T00:07:39;100534.47;;;1.02;100.00
8641;BME280;4358;42.100;25.222;2023-12-20T00:10:06;100526.56;;;1.05;100.00
8641;BME280;4358;42.100;25.222;2023-12-20T00:12:33;100525.47;;;1.16;100.00
8641;BME280;4358;42.100;25.222;2023-12-20T00:15:02;100513.91;;;1.28;100.00
8641;BME280;4358;42.100;25.222;2023-12-20T00:17:28;100503.34;;;1.34;100.00
8641;BME280;4358;42.100;25.222;2023-12-20T00:19:55;100509.28;;;1.42;100.00
8641;BME280;4358;42.100;25.222;2023-12-20T00:22:22;100510.91;;;1.48;100.00
8641;BME280;4358;42.100;25.222;2023-12-20T00:24:49;100514.25;;;1.56;100.00
8641;BME280;4358;42.100;25.222;2023-12-20T00:27:15;100511.53;;;1.60;100.00
8641;BME280;4358;42.100;25.222;2023-12-20T00:29:42;100508.06;;;1.58;100.00
8641;BME280;4358;42.100;25.222;2023-12-20T00:32:14;100511.44;;;1.63;100.00
8641;BME280;4358;42.100;25.222;2023-12-20T00:34:41;100510.47;;;1.67;100.00
8641;BME280;4358;42.100;25.222;2023-12-20T00:37:08;100500.81;;;1.73;100.00
8641;BME280;4358;42.100;25.222;2023-12-20T00:39:35;100500.81;;;1.73;100.00
8641;BME280;4358;42.100;25.222;2023-12-20T00:42:02;100503.47;;;1.69;100.00
8641;BME280;4358;42.100;25.222;2023-12-20T00:44:29;100492.13;;;1.70;100.00
8641;BME280;4358;42.100;25.222;2023-12-20T00:46:55;100492.00;;;1.77;100.00
8641;BME280;4358;42.100;25.222;2023-12-20T00:49:23;100492.00;;;1.77;100.00
8641;BME280;4358;42.100;25.222;2023-12-20T00:51:50;100487.66;;;1.76;100.00
8641;BME280;4358;42.100;25.222;2023-12-20T00:54:18;100491.19;;;1.73;100.00
8641;BME280;4358;42.100;25.222;2023-12-20T00:56:45;100480.78;;;1.70;100.00
8641;BME280;4358;42.100;25.222;2023-12-20T00:59:11;100478.16;;;1.72;100.00
8641;BME280;4358;42.100;25.222;2023-12-20T01:01:38;100471.22;;;1.67;100.00
8641;BME280;4358;42.100;25.222;2023-12-20T01:04:06;100478.94;;;1.75;100.00
8641;BME280;4358;42.100;25.222;2023-12-20T01:06:34;100479.38;;;1.55;100.00
8641;BME280;4358;42.100;25.222;2023-12-20T01:09:00;100476.00;;;1.50;100.00
8641;BME280;4358;42.100;25.222;2023-12-20T01:11:28;100471.53;;;1.55;100.00
8641;BME280;4358;42.100;25.222;2023-12-20T01:13:55;100468.66;;;1.66;100.00
8641;BME280;4358;42.100;25.222;2023-12-20T01:16:21;100463.44;;;1.66;100.00
8641;BME280;4358;42.100;25.222;2023-12-20T01:18:48;100473.94;;;1.63;100.00
8641;BME280;4358;42.100;25.222;2023-12-20T01:21:15;100465.34;;;1.58;100.00
8641;BME280;4358;42.100;25.222;2023-12-20T01:23:44;100460.50;;;1.41;100.00
8641;BME280;4358;42.100;25.222;2023-12-20T01:26:11;100451.81;;;1.39;100.00
8641;BME280;4358;42.100;25.222;2023-12-20T01:28:38;100461.31;;;1.43;100.00
8641;BME280;4358;42.100;25.222;2023-12-20T01:31:05;100450.72;;;1.49;100.00
8641;BME280;4358;42.100;25.222;2023-12-20T01:33:31;100445.41;;;1.52;100.00
8641;BME280;4358;42.100;25.222;2023-12-20T01:35:58;100443.50;;;1.60;100.00
8641;BME280;4358;42.100;25.222;2023-12-20T01:38:25;100445.50;;;1.49;100.00
8641;BME280;4358;42.100;25.222;2023-12-20T01:40:53;100438.47;;;1.51;100.00
8641;BME280;4358;42.100;25.222;2023-12-20T01:43:20;100442.75;;;1.55;100.00
8641;BME280;4358;42.100;25.222;2023-12-20T01:45:47;100434.78;;;1.61;100.00
8641;BME280;4358;42.100;25.222;2023-12-20T01:48:15;100426.84;;;1.64;100.00
8641;BME280;4358;42.100;25.222;2023-12-20T01:50:43;100426.84;;;1.63;100.00
8641;BME280;4358;42.100;25.222;2023-12-20T01:53:12;100418.06;;;1.67;100.00
8641;BME280;4358;42.100;25.222;2023-12-20T01:55:40;100427.63;;;1.68;100.00
8641;BME280;4358;42.100;25.222;2023-12-20T01:58:09;100422.44;;;1.66;100.00
8641;BME280;4358;42.100;25.222;2023-12-20T02:00:36;100423.44;;;1.61;100.00
8641;BME280;4358;42.100;25.222;2023-12-20T02:03:04;100413.84;;;1.61;100.00
8641;BME280;4358;42.100;25.222;2023-12-20T02:05:31;100415.53;;;1.62;100.00
8641;BME280;4358;42.100;25.222;2023-12-20T02:07:58;100409.47;;;1.62;100.00
8641;BME280;4358;42.100;25.222;2023-12-20T02:10:26;100407.59;;;1.67;100.00
8641;BME280;4358;42.100;25.222;2023-12-20T02:12:53;100396.19;;;1.69;100.00
8641;BME280;4358;42.100;25.222;2023-12-20T02:15:21;100398.06;;;1.64;100.00
8641;BME280;4358;42.100;25.222;2023-12-20T02:17:48;100396.41;;;1.60;100.00
8641;BME280;4358;42.100;25.222;2023-12-20T02:20:15;100400.00;;;1.56;100.00
8641;BME280;4358;42.100;25.222;2023-12-20T02:22:43;100393.09;;;1.52;100.00
8641;BME280;4358;42.100;25.222;2023-12-20T02:25:10;100388.03;;;1.46;100.00
8641;BME280;4358;42.100;25.222;2023-12-20T02:27:38;100383.69;;;1.44;100.00
8641;BME280;4358;42.100;25.222;2023-12-20T02:30:06;100376.75;;;1.43;100.00
8641;BME280;4358;42.100;25.222;2023-12-20T02:32:33;100381.19;;;1.39;100.00
8641;BME280;4358;42.100;25.222;2023-12-20T02:35:00;100383.06;;;1.34;100.00
8641;BME280;4358;42.100;25.222;2023-12-20T02:37:27;100387.44;;;1.32;100.00
8641;BME280;4358;42.100;25.222;2023-12-20T02:39:55;100382.25;;;1.31;100.00
8641;BME280;4358;42.100;25.222;2023-12-20T02:42:21;100386.56;;;1.33;100.00
8641;BME280;4358;42.100;25.222;2023-12-20T02:44:48;100386.63;;;1.30;100.00
8641;BME280;4358;42.100;25.222;2023-12-20T02:47:15;100384.13;;;1.25;100.00
8641;BME280;4358;42.100;25.222;2023-12-20T02:49:42;100380.72;;;1.20;100.00
8641;BME280;4358;42.100;25.222;2023-12-20T02:52:09;100375.66;;;1.14;100.00
8641;BME280;4358;42.100;25.222;2023-12-20T02:54:35;100370.47;;;1.11;100.00
8641;BME280;4358;42.100;25.222;2023-12-20T02:57:04;100367.81;;;1.13;100.00
8641;BME280;4358;42.100;25.222;2023-12-20T02:59:30;100367.03;;;1.09;100.00
8641;BME280;4358;42.100;25.222;2023-12-20T03:01:57;100366.97;;;1.12;100.00
8641;BME280;4358;42.100;25.222;2023-12-20T03:04:24;100360.88;;;1.12;100.00
8641;BME280;4358;42.100;25.222;2023-12-20T03:06:51;100352.16;;;1.11;100.00
8641;BME280;4358;42.100;25.222;2023-12-20T03:09:18;100354.00;;;1.08;100.00
8641;BME280;4358;42.100;25.222;2023-12-20T03:11:44;100355.72;;;1.09;100.00
8641;BME280;4358;42.100;25.222;2023-12-20T03:14:13;100350.44;;;1.10;100.00
8641;BME280;4358;42.100;25.222;2023-12-20T03:16:40;100352.97;;;1.15;100.00
8641;BME280;4358;42.100;25.222;2023-12-20T03:19:06;100350.38;;;1.15;100.00
8641;BME280;4358;42.100;25.222;2023-12-20T03:21:33;100347.69;;;1.16;100.00
8641;BME280;4358;42.100;25.222;2023-12-20T03:24:00;100347.81;;;1.10;100.00
8641;BME280;4358;42.100;25.222;2023-12-20T03:26:28;100349.50;;;1.14;100.00
8641;BME280;4358;42.100;25.222;2023-12-20T03:28:55;100343.31;;;1.17;100.00
8641;BME280;4358;42.100;25.222;2023-12-20T03:31:23;100346.84;;;1.16;100.00
8641;BME280;4358;42.100;25.222;2023-12-20T03:33:49;100340.91;;;1.09;100.00
8641;BME280;4358;42.100;25.222;2023-12-20T03:36:19;100329.63;;;1.06;100.00
8641;BME280;4358;42.100;25.222;2023-12-20T03:38:45;100326.34;;;0.98;100.00
8641;BME280;4358;42.100;25.222;2023-12-20T03:41:13;100334.41;;;0.87;100.00
8641;BME280;4358;42.100;25.222;2023-12-20T03:43:40;100336.59;;;0.64;100.00
8641;BME280;4358;42.100;25.222;2023-12-20T03:46:07;100330.97;;;0.40;100.00
8641;BME280;4358;42.100;25.222;2023-12-20T03:48:36;100330.41;;;0.23;100.00
8641;BME280;4358;42.100;25.222;2023-12-20T03:51:02;100330.72;;;0.07;100.00
8641;BME280;4358;42.100;25.222;2023-12-20T03:53:29;100337.06;;;-0.10;100.00
8641;BME280;4358;42.100;25.222;2023-12-20T03:55:56;100330.53;;;-0.32;100.00
8641;BME280;4358;42.100;25.222;2023-12-20T03:58:23;100324.81;;;-0.57;100.00
8641;BME280;4358;42.100;25.222;2023-12-20T04:00:50;100327.47;;;-0.61;100.00
8641;BME280;4358;42.100;25.222;2023-12-20T04:03:17;100336.31;;;-0.71;100.00
8641;BME280;4358;42.100;25.222;2023-12-20T04:05:45;100331.16;;;-0.74;100.00
8641;BME280;4358;42.100;25.222;2023-12-20T04:08:12;100331.41;;;-0.93;100.00
8641;BME280;4358;42.100;25.222;2023-12-20T04:10:39;100326.06;;;-0.83;100.00
8641;BME280;4358;42.100;25.222;2023-12-20T04:13:06;100329.47;;;-0.78;100.00
8641;BME280;4358;42.100;25.222;2023-12-20T04:15:32;100332.19;;;-0.84;100.00
8641;BME280;4358;42.100;25.222;2023-12-20T04:17:59;100332.25;;;-0.89;100.00
8641;BME280;4358;42.100;25.222;2023-12-20T04:20:26;100332.28;;;-0.94;100.00
8641;BME280;4358;42.100;25.222;2023-12-20T04:22:54;100317.63;;;-1.01;100.00
8641;BME280;4358;42.100;25.222;2023-12-20T04:25:21;100323.78;;;-1.06;100.00
8641;BME280;4358;42.100;25.222;2023-12-20T04:27:48;100328.84;;;-0.96;100.00
8641;BME280;4358;42.100;25.222;2023-12-20T04:30:15;100320.19;;;-0.96;100.00
8641;BME280;4358;42.100;25.222;2023-12-20T04:32:41;100327.88;;;-0.89;100.00
8641;BME280;4358;42.100;25.222;2023-12-20T04:35:08;100319.91;;;-0.78;100.00
8641;BME280;4358;42.100;25.222;2023-12-20T04:37:35;100323.19;;;-0.65;100.00
8641;BME280;4358;42.100;25.222;2023-12-20T04:40:04;100316.91;;;-0.52;100.00
8641;BME280;4358;42.100;25.222;2023-12-20T04:42:31;100315.94;;;-0.45;100.00
8641;BME280;4358;42.100;25.222;2023-12-20T04:44:58;100322.75;;;-0.36;100.00
8641;BME280;4358;42.100;25.222;2023-12-20T04:47:25;100314.66;;;-0.20;100.00
8641;BME280;4358;42.100;25.222;2023-12-20T04:49:52;100302.44;;;-0.18;100.00
8641;BME280;4358;42.100;25.222;2023-12-20T04:52:19;100304.31;;;-0.26;100.00
8641;BME280;4358;42.100;25.222;2023-12-20T04:54:45;100297.44;;;-0.30;100.00
8641;BME280;4358;42.100;25.222;2023-12-20T04:57:13;100301.06;;;-0.38;100.00
8641;BME280;4358;42.100;25.222;2023-12-20T04:59:40;100289.66;;;-0.33;100.00
8641;BME280;4358;42.100;25.222;2023-12-20T05:02:07;100289.53;;;-0.25;100.00
8641;BME280;4358;42.100;25.222;2023-12-20T05:04:34;100298.25;;;-0.26;100.00
8641;BME280;4358;42.100;25.222;2023-12-20T05:07:01;100298.44;;;-0.38;100.00
8641;BME280;4358;42.100;25.222;2023-12-20T05:09:30;100295.06;;;-0.45;100.00
8641;BME280;4358;42.100;25.222;2023-12-20T05:11:57;100289.88;;;-0.47;100.00
8641;BME280;4358;42.100;25.222;2023-12-20T05:14:25;100288.81;;;-0.35;100.00
8641;BME280;4358;42.100;25.222;2023-12-20T05:16:52;100283.66;;;-0.38;100.00
8641;BME280;4358;42.100;25.222;2023-12-20T05:19:19;100288.88;;;-0.38;100.00
8641;BME280;4358;42.100;25.222;2023-12-20T05:21:46;100282.00;;;-0.42;100.00
8641;BME280;4358;42.100;25.222;2023-12-20T05:24:12;100274.09;;;-0.37;100.00
8641;BME280;4358;42.100;25.222;2023-12-20T05:26:40;100267.84;;;-0.29;100.00
8641;BME280;4358;42.100;25.222;2023-12-20T05:29:06;100267.78;;;-0.26;100.00
8641;BME280;4358;42.100;25.222;2023-12-20T05:31:35;100266.88;;;-0.22;100.00
8641;BME280;4358;42.100;25.222;2023-12-20T05:34:02;100269.34;;;-0.16;100.00
8641;BME280;4358;42.100;25.222;2023-12-20T05:36:28;100269.22;;;-0.07;100.00
8641;BME280;4358;42.100;25.222;2023-12-20T05:38:55;100256.94;;;-0.02;100.00
8641;BME280;4358;42.100;25.222;2023-12-20T05:41:22;100248.13;;;0.04;100.00
8641;BME280;4358;42.100;25.222;2023-12-20T05:43:49;100249.03;;;0.02;100.00
8641;BME280;4358;42.100;25.222;2023-12-20T05:46:16;100249.72;;;0.11;100.00
8641;BME280;4358;42.100;25.222;2023-12-20T05:48:44;100250.47;;;0.19;100.00
8641;BME280;4358;42.100;25.222;2023-12-20T05:51:11;100259.25;;;0.15;100.00
8641;BME280;4358;42.100;25.222;2023-12-20T05:53:38;100254.88;;;0.16;100.00
8641;BME280;4358;42.100;25.222;2023-12-20T05:56:05;100258.31;;;0.18;100.00
8641;BME280;4358;42.100;25.222;2023-12-20T05:58:33;100252.09;;;0.23;100.00
8641;BME280;4358;42.100;25.222;2023-12-20T06:01:00;100254.88;;;0.16;100.00
8641;BME280;4358;42.100;25.222;2023-12-20T06:03:26;100254.94;;;0.11;100.00
8641;BME280;4358;42.100;25.222;2023-12-20T06:05:55;100260.22;;;0.10;100.00
8641;BME280;4358;42.100;25.222;2023-12-20T06:08:21;100247.06;;;0.14;100.00
8641;BME280;4358;42.100;25.222;2023-12-20T06:10:48;100242.75;;;0.12;100.00
8641;BME280;4358;42.100;25.222;2023-12-20T06:13:15;100242.88;;;0.06;100.00
8641;BME280;4358;42.100;25.222;2023-12-20T06:15:42;100247.84;;;0.19;100.00
8641;BME280;4358;42.100;25.222;2023-12-20T06:18:09;100240.81;;;0.21;100.00
8641;BME280;4358;42.100;25.222;2023-12-20T06:20:35;100241.66;;;0.25;100.00
8641;BME280;4358;42.100;25.222;2023-12-20T06:23:03;100238.09;;;0.27;100.00
8641;BME280;4358;42.100;25.222;2023-12-20T06:25:30;100238.06;;;0.29;100.00
8641;BME280;4358;42.100;25.222;2023-12-20T06:27:57;100233.81;;;0.25;100.00
8641;BME280;4358;42.100;25.222;2023-12-20T06:30:24;100231.00;;;0.35;100.00
8641;BME280;4358;42.100;25.222;2023-12-20T06:32:53;100235.28;;;0.38;100.00
8641;BME280;4358;42.100;25.222;2023-12-20T06:35:20;100230.88;;;0.41;100.00
8641;BME280;4358;42.100;25.222;2023-12-20T06:37:47;100234.47;;;0.36;100.00
8641;BME280;4358;42.100;25.222;2023-12-20T06:40:15;100235.16;;;0.44;100.00
8641;BME280;4358;42.100;25.222;2023-12-20T06:42:42;100238.59;;;0.46;100.00
8641;BME280;4358;42.100;25.222;2023-12-20T06:45:10;100241.97;;;0.51;100.00
8641;BME280;4358;42.100;25.222;2023-12-20T06:47:38;100243.50;;;0.61;100.00
8641;BME280;4358;42.100;25.222;2023-12-20T06:50:05;100244.13;;;0.72;100.00
8641;BME280;4358;42.100;25.222;2023-12-20T06:52:33;100242.16;;;0.83;100.00
8641;BME280;4358;42.100;25.222;2023-12-20T06:55:00;100241.06;;;0.94;100.00
8641;BME280;4358;42.100;25.222;2023-12-20T06:57:29;100246.97;;;1.00;100.00
8641;BME280;4358;42.100;25.222;2023-12-20T06:59:56;100232.25;;;0.98;100.00
8641;BME280;4358;42.100;25.222;2023-12-20T07:02:23;100239.13;;;1.02;100.00
8641;BME280;4358;42.100;25.222;2023-12-20T07:04:50;100241.63;;;1.06;100.00
8641;BME280;4358;42.100;25.222;2023-12-20T07:07:17;100234.53;;;1.11;100.00
8641;BME280;4358;42.100;25.222;2023-12-20T07:09:43;100240.47;;;1.18;100.00
8641;BME280;4358;42.100;25.222;2023-12-20T07:12:11;100234.13;;;1.28;100.00
8641;BME280;4358;42.100;25.222;2023-12-20T07:14:39;100233.16;;;1.32;100.00
8641;BME280;4358;42.100;25.222;2023-12-20T07:17:06;100230.06;;;1.16;100.00
8641;BME280;4358;42.100;25.222;2023-12-20T07:19:37;100224.22;;;1.05;100.00
8641;BME280;4358;42.100;25.222;2023-12-20T07:22:03;100214.75;;;1.00;100.00
8641;BME280;4358;42.100;25.222;2023-12-20T07:24:30;100213.06;;;0.99;100.00
8641;BME280;4358;42.100;25.222;2023-12-20T07:26:57;100210.19;;;1.09;100.00
8641;BME280;4358;42.100;25.222;2023-12-20T07:29:24;100215.19;;;1.20;100.00
8641;BME280;4358;42.100;25.222;2023-12-20T07:31:53;100202.72;;;1.30;100.00
8641;BME280;4358;42.100;25.222;2023-12-20T07:34:20;100193.28;;;1.24;100.00
8641;BME280;4358;42.100;25.222;2023-12-20T07:36:47;100196.34;;;1.41;100.00
8641;BME280;4358;42.100;25.222;2023-12-20T07:39:14;100200.72;;;1.41;100.00
8641;BME280;4358;42.100;25.222;2023-12-20T07:41:40;100205.75;;;1.47;100.00
8641;BME280;4358;42.100;25.222;2023-12-20T07:44:07;100201.09;;;1.59;100.00
8641;BME280;4358;42.100;25.222;2023-12-20T07:46:34;100195.63;;;1.68;100.00
8641;BME280;4358;42.100;25.222;2023-12-20T07:49:02;100199.81;;;1.74;100.00
8641;BME280;4358;42.100;25.222;2023-12-20T07:51:29;100200.44;;;1.84;100.00
8641;BME280;4358;42.100;25.222;2023-12-20T07:53:55;100197.66;;;1.90;100.00
8641;BME280;4358;42.100;25.222;2023-12-20T07:56:22;100186.03;;;2.00;100.00
8641;BME280;4358;42.100;25.222;2023-12-20T07:58:49;100196.19;;;2.12;100.00
8641;BME280;4358;42.100;25.222;2023-12-20T08:01:16;100200.38;;;2.18;100.00
8641;BME280;4358;42.100;25.222;2023-12-20T08:03:44;100192.41;;;2.22;100.00
8641;BME280;4358;42.100;25.222;2023-12-20T08:06:13;100199.19;;;2.29;100.00
8641;BME280;4358;42.100;25.222;2023-12-20T08:08:40;100191.38;;;2.28;100.00
8641;BME280;4358;42.100;25.222;2023-12-20T08:11:07;100195.84;;;2.24;100.00
8641;BME280;4358;42.100;25.222;2023-12-20T08:13:34;100191.38;;;2.28;100.00
8641;BME280;4358;42.100;25.222;2023-12-20T08:16:01;100185.97;;;2.34;100.00
8641;BME280;4358;42.100;25.222;2023-12-20T08:18:29;100188.44;;;2.38;100.00
8641;BME280;4358;42.100;25.222;2023-12-20T08:20:56;100190.97;;;2.41;100.00
8641;BME280;4358;42.100;25.222;2023-12-20T08:23:24;100174.34;;;2.42;100.00
8641;BME280;4358;42.100;25.222;2023-12-20T08:25:52;100167.34;;;2.43;100.00
8641;BME280;4358;42.100;25.222;2023-12-20T08:28:18;100169.03;;;2.45;100.00
8641;BME280;4358;42.100;25.222;2023-12-20T08:30:45;100160.00;;;2.55;100.00
8641;BME280;4358;42.100;25.222;2023-12-20T08:33:12;100173.53;;;2.70;100.00
8641;BME280;4358;42.100;25.222;2023-12-20T08:35:39;100176.50;;;2.87;100.00
8641;BME280;4358;42.100;25.222;2023-12-20T08:38:06;100166.44;;;2.99;100.00
8641;BME280;4358;42.100;25.222;2023-12-20T08:40:35;100169.59;;;3.11;100.00
8641;BME280;4358;42.100;25.222;2023-12-20T08:43:02;100161.22;;;3.26;100.00
8641;BME280;4358;42.100;25.222;2023-12-20T08:45:28;100152.22;;;3.34;100.00
8641;BME280;4358;42.100;25.222;2023-12-20T08:47:55;100149.31;;;3.42;100.00
8641;BME280;4358;42.100;25.222;2023-12-20T08:50:22;100137.34;;;3.60;100.00
8641;BME280;4358;42.100;25.222;2023-12-20T08:52:51;100125.78;;;3.65;100.00
8641;BME280;4358;42.100;25.222;2023-12-20T08:55:19;100127.94;;;3.77;100.00
8641;BME280;4358;42.100;25.222;2023-12-20T08:57:47;100130.25;;;3.87;100.00
8641;BME280;4358;42.100;25.222;2023-12-20T09:00:15;100124.72;;;3.94;100.00
8641;BME280;4358;42.100;25.222;2023-12-20T09:02:41;100106.09;;;4.00;100.00
8641;BME280;4358;42.100;25.222;2023-12-20T09:05:08;100100.63;;;4.06;100.00
8641;BME280;4358;42.100;25.222;2023-12-20T09:07:35;100099.03;;;4.02;100.00
8641;BME280;4358;42.100;25.222;2023-12-20T09:10:02;100088.84;;;3.70;100.00
8641;BME280;4358;42.100;25.222;2023-12-20T09:12:29;100082.38;;;3.55;100.00
8641;BME280;4358;42.100;25.222;2023-12-20T09:14:57;100069.88;;;3.38;100.00
8641;BME280;4358;42.100;25.222;2023-12-20T09:17:24;100061.44;;;3.54;100.00
8641;BME280;4358;42.100;25.222;2023-12-20T09:19:51;100065.31;;;3.67;100.00
8641;BME280;4358;42.100;25.222;2023-12-20T09:22:19;100062.94;;;3.84;100.00
8641;BME280;4358;42.100;25.222;2023-12-20T09:24:46;100046.75;;;3.96;100.00
8641;BME280;4358;42.100;25.222;2023-12-20T09:27:13;100042.63;;;4.12;100.00
8641;BME280;4358;42.100;25.222;2023-12-20T09:29:39;100042.75;;;4.31;100.00
8641;BME280;4358;42.100;25.222;2023-12-20T09:32:08;100042.91;;;4.50;100.00
8641;BME280;4358;42.100;25.222;2023-12-20T09:34:34;100040.44;;;4.67;100.00
8641;BME280;4358;42.100;25.222;2023-12-20T09:37:03;100032.25;;;4.75;100.00
8641;BME280;4358;42.100;25.222;2023-12-20T09:39:31;100034.44;;;4.85;100.00
8641;BME280;4358;42.100;25.222;2023-12-20T09:42:01;100028.28;;;5.06;100.00
8641;BME280;4358;42.100;25.222;2023-12-20T09:44:28;100020.22;;;5.09;100.00
8641;BME280;4358;42.100;25.222;2023-12-20T09:46:56;100021.44;;;5.23;100.00
8641;BME280;4358;42.100;25.222;2023-12-20T09:49:25;100017.22;;;5.39;100.00
8641;BME280;4358;42.100;25.222;2023-12-20T09:51:54;99996.81;;;5.44;100.00
8641;BME280;4358;42.100;25.222;2023-12-20T09:54:21;99992.97;;;5.51;100.00
8641;BME280;4358;42.100;25.222;2023-12-20T09:56:49;99989.25;;;5.55;100.00
8641;BME280;4358;42.100;25.222;2023-12-20T09:59:16;99988.59;;;5.70;100.00
8641;BME280;4358;42.100;25.222;2023-12-20T10:01:43;99990.78;;;5.79;100.00
8641;BME280;4358;42.100;25.222;2023-12-20T10:04:12;99977.28;;;5.87;100.00
8641;BME280;4358;42.100;25.222;2023-12-20T10:06:40;99971.97;;;5.88;100.00
8641;BME280;4358;42.100;25.222;2023-12-20T10:09:08;99974.78;;;5.84;100.00
8641;BME280;4358;42.100;25.222;2023-12-20T10:11:35;99964.41;;;5.81;100.00
8641;BME280;4358;42.100;25.222;2023-12-20T10:14:04;99968.94;;;5.77;100.00
8641;BME280;4358;42.100;25.222;2023-12-20T10:16:31;99966.72;;;5.68;100.00
8641;BME280;4358;42.100;25.222;2023-12-20T10:18:59;99959.19;;;5.79;100.00
8641;BME280;4358;42.100;25.222;2023-12-20T10:21:27;99959.72;;;5.87;100.00
8641;BME280;4358;42.100;25.222;2023-12-20T10:23:56;99943.75;;;6.09;100.00
8641;BME280;4358;42.100;25.222;2023-12-20T10:26:24;99944.44;;;6.13;100.00
8641;BME280;4358;42.100;25.222;2023-12-20T10:28:53;99938.41;;;6.11;100.00
8641;BME280;4358;42.100;25.222;2023-12-20T10:31:30;99940.59;;;6.20;100.00
8641;BME280;4358;42.100;25.222;2023-12-20T10:33:57;99932.22;;;6.29;100.00
8641;BME280;4358;42.100;25.222;2023-12-20T10:36:25;99926.28;;;6.43;100.00
8641;BME280;4358;42.100;25.222;2023-12-20T10:38:53;99922.97;;;6.56;100.00
8641;BME280;4358;42.100;25.222;2023-12-20T10:41:25;99922.25;;;6.70;100.00
8641;BME280;4358;42.100;25.222;2023-12-20T10:43:55;99923.34;;;6.66;100.00
8641;BME280;4358;42.100;25.222;2023-12-20T10:46:22;99908.13;;;6.71;100.00
8641;BME280;4358;42.100;25.222;2023-12-20T10:48:53;99908.59;;;6.96;100.00
8641;BME280;4358;42.100;25.222;2023-12-20T10:51:20;99895.31;;;6.98;100.00
8641;BME280;4358;42.100;25.222;2023-12-20T10:53:48;99890.34;;;7.09;100.00
8641;BME280;4358;42.100;25.222;2023-12-20T10:56:17;99895.03;;;7.19;100.00
8641;BME280;4358;42.100;25.222;2023-12-20T10:58:47;99896.19;;;7.31;100.00
8641;BME280;4358;42.100;25.222;2023-12-20T11:01:15;99888.69;;;7.39;100.00
8641;BME280;4358;42.100;25.222;2023-12-20T11:03:48;99890.94;;;7.47;100.00
8641;BME280;4358;42.100;25.222;2023-12-20T11:06:26;99877.13;;;7.57;100.00
8641;BME280;4358;42.100;25.222;2023-12-20T11:08:59;99875.94;;;7.63;100.00
8641;BME280;4358;42.100;25.222;2023-12-20T11:11:38;99875.09;;;7.78;100.00
8641;BME280;4358;42.100;25.222;2023-12-20T11:14:16;99871.84;;;7.89;100.00
8641;BME280;4358;42.100;25.222;2023-12-20T11:16:43;99861.78;;;7.95;100.00
8641;BME280;4358;42.100;25.222;2023-12-20T11:19:11;99868.50;;;8.01;100.00
8641;BME280;4358;42.100;25.222;2023-12-20T11:21:40;99863.97;;;8.03;100.00
8641;BME280;4358;42.100;25.222;2023-12-20T11:24:07;99860.13;;;8.08;100.00
8641;BME280;4358;42.100;25.222;2023-12-20T11:26:34;99859.53;;;8.19;100.00
8641;BME280;4358;42.100;25.222;2023-12-20T11:29:30;99853.28;;;8.20;100.00
8641;BME280;4358;42.100;25.222;2023-12-20T11:31:57;99857.88;;;8.17;100.00
8641;BME280;4358;42.100;25.222;2023-12-20T11:34:27;99854.31;;;8.18;100.00
8641;BME280;4358;42.100;25.222;2023-12-20T11:36:58;99844.44;;;8.21;100.00
8641;BME280;4358;42.100;25.222;2023-12-20T11:39:26;99845.00;;;8.26;100.00
8641;BME280;4358;42.100;25.222;2023-12-20T11:41:55;99833.72;;;8.38;100.00
8641;BME280;4358;42.100;25.222;2023-12-20T11:44:22;99832.44;;;8.45;100.00
8641;BME280;4358;42.100;25.222;2023-12-20T11:46:50;99828.28;;;8.56;100.00
8641;BME280;4358;42.100;25.222;2023-12-20T11:49:23;99825.09;;;8.65;100.00
8641;BME280;4358;42.100;25.222;2023-12-20T11:51:50;99816.72;;;8.72;100.00
8641;BME280;4358;42.100;25.222;2023-12-20T11:54:17;99810.75;;;8.83;100.00
8641;BME280;4358;42.100;25.222;2023-12-20T11:56:43;99804.41;;;8.71;100.00
8641;BME280;4358;42.100;25.222;2023-12-20T11:59:11;99795.34;;;8.75;100.00
8641;BME280;4358;42.100;25.222;2023-12-20T12:01:37;99788.81;;;8.81;100.00
8641;BME280;4358;42.100;25.222;2023-12-20T12:04:06;99790.25;;;8.86;100.00
8641;BME280;4358;42.100;25.222;2023-12-20T12:06:33;99786.38;;;8.92;100.00
8641;BME280;4358;42.100;25.222;2023-12-20T12:09:00;99770.97;;;8.99;100.00
8641;BME280;4358;42.100;25.222;2023-12-20T12:11:29;99777.50;;;8.93;100.00
8641;BME280;4358;42.100;25.222;2023-12-20T12:13:56;99776.72;;;8.91;100.00
8641;BME280;4358;42.100;25.222;2023-12-20T12:16:23;99767.63;;;8.95;100.00
8641;BME280;4358;42.100;25.222;2023-12-20T12:18:55;99771.81;;;8.99;100.00
8641;BME280;4358;42.100;25.222;2023-12-20T12:21:24;99760.44;;;9.11;100.00
8641;BME280;4358;42.100;25.222;2023-12-20T12:23:51;99755.44;;;9.07;100.00
8641;BME280;4358;42.100;25.222;2023-12-20T12:26:18;99756.69;;;9.15;100.00
8641;BME280;4358;42.100;25.222;2023-12-20T12:28:45;99759.88;;;9.20;100.00
8641;BME280;4358;42.100;25.222;2023-12-20T12:31:15;99752.66;;;9.22;100.00
8641;BME280;4358;42.100;25.222;2023-12-20T12:33:42;99745.28;;;9.27;100.00
8641;BME280;4358;42.100;25.222;2023-12-20T12:36:10;99741.34;;;9.20;100.00
8641;BME280;4358;42.100;25.222;2023-12-20T12:38:38;99736.81;;;9.08;100.00
8641;BME280;4358;42.100;25.222;2023-12-20T12:41:05;99729.91;;;9.06;100.00
8641;BME280;4358;42.100;25.222;2023-12-20T12:43:32;99715.47;;;8.97;100.00
8641;BME280;4358;42.100;25.222;2023-12-20T12:46:00;99713.97;;;8.93;100.00
8641;BME280;4358;42.100;25.222;2023-12-20T12:48:27;99711.28;;;9.07;100.00
8641;BME280;4358;42.100;25.222;2023-12-20T12:50:53;99720.47;;;9.16;100.00
8641;BME280;4358;42.100;25.222;2023-12-20T12:53:24;99716.34;;;9.24;100.00
8641;BME280;4358;42.100;25.222;2023-12-20T12:55:52;99726.75;;;9.27;100.00
8641;BME280;4358;42.100;25.222;2023-12-20T12:58:20;99728.28;;;9.31;100.00
8641;BME280;4358;42.100;25.222;2023-12-20T13:00:47;99719.00;;;9.24;100.00
8641;BME280;4358;42.100;25.222;2023-12-20T13:03:14;99716.06;;;9.29;100.00